sensor_id;sensor_type;location;lat;lon;timestamp;pressure;altitude;pressure_sealevel;temperature;humidity
12215;BME280;6170;42.206;24.142;2024-01-15T00:00:25;98266.13;;;-3.47;81.99
12215;BME280;6170;42.206;24.142;2024-01-15T00:02:52;98277.41;;;-3.46;81.77
12215;BME280;6170;42.206;24.142;2024-01-15T00:05:19;98265.47;;;-3.60;81.38
12215;BME280;6170;42.206;24.142;2024-01-15T00:07:46;98428.97;;;-2.89;81.63
12215;BME280;6170;42.206;24.142;2024-01-15T00:10:13;98278.34;;;-3.68;81.59
12215;BME280;6170;42.206;24.142;2024-01-15T00:12:41;98431.44;;;-2.46;80.70
12215;BME280;6170;42.206;24.142;2024-01-15T00:15:09;98281.72;;;-3.45;80.38
12215;BME280;6170;42.206;24.142;2024-01-15T00:17:38;98274.81;;;-3.46;80.08
12215;BME280;6170;42.206;24.142;2024-01-15T00:20:06;98291.34;;;-3.46;79.36
12215;BME280;6170;42.206;24.142;2024-01-15T00:22:34;98440.47;;;-2.81;79.65
12215;BME280;6170;42.206;24.142;2024-01-15T00:25:02;98398.91;;;-2.85;78.81
12215;BME280;6170;42.206;24.142;2024-01-15T00:27:29;98297.06;;;-3.73;79.61
12215;BME280;6170;42.206;24.142;2024-01-15T00:29:56;98438.38;;;-2.66;80.02
12215;BME280;6170;42.206;24.142;2024-01-15T00:32:23;98239.66;;;-3.65;80.15
12215;BME280;6170;42.206;24.142;2024-01-15T00:34:52;98272.28;;;-3.27;79.91
12215;BME280;6170;42.206;24.142;2024-01-15T00:37:19;98276.00;;;-3.30;80.00
12215;BME280;6170;42.206;24.142;2024-01-15T00:39:47;98280.38;;;-3.19;79.64
12215;BME280;6170;42.206;24.142;2024-01-15T00:42:14;98420.34;;;-2.29;80.12
12215;BME280;6170;42.206;24.142;2024-01-15T00:44:42;98264.03;;;-3.23;80.23
12215;BME280;6170;42.206;24.142;2024-01-15T00:47:09;98370.97;;;-2.75;80.60
12215;BME280;6170;42.206;24.142;2024-01-15T00:49:36;98277.16;;;-3.43;80.52
12215;BME280;6170;42.206;24.142;2024-01-15T00:52:05;98420.72;;;-2.64;80.78
12215;BME280;6170;42.206;24.142;2024-01-15T00:54:32;98387.97;;;-2.90;80.92
12215;BME280;6170;42.206;24.142;2024-01-15T00:57:00;98296.50;;;-3.35;80.66
12215;BME280;6170;42.206;24.142;2024-01-15T00:59:27;98263.75;;;-3.50;81.29
12215;BME280;6170;42.206;24.142;2024-01-15T01:01:54;98255.31;;;-3.53;81.08
12215;BME280;6170;42.206;24.142;2024-01-15T01:04:21;98254.81;;;-3.47;81.77
12215;BME280;6170;42.206;24.142;2024-01-15T01:06:49;98293.81;;;-3.65;82.88
12215;BME280;6170;42.206;24.142;2024-01-15T01:09:18;98273.22;;;-3.58;83.25
12215;BME280;6170;42.206;24.142;2024-01-15T01:11:45;98259.00;;;-3.56;82.29
12215;BME280;6170;42.206;24.142;2024-01-15T01:14:12;98274.28;;;-3.40;81.78
12215;BME280;6170;42.206;24.142;2024-01-15T01:16:39;98409.34;;;-2.53;81.60
12215;BME280;6170;42.206;24.142;2024-01-15T01:19:07;98273.50;;;-3.31;81.56
12215;BME280;6170;42.206;24.142;2024-01-15T01:21:34;98416.66;;;-2.47;81.65
12215;BME280;6170;42.206;24.142;2024-01-15T01:24:01;98257.75;;;-3.41;81.28
12215;BME280;6170;42.206;24.142;2024-01-15T01:26:30;98233.97;;;-3.49;80.78
12215;BME280;6170;42.206;24.142;2024-01-15T01:28:57;98407.22;;;-2.80;81.62
12215;BME280;6170;42.206;24.142;2024-01-15T01:31:25;98267.34;;;-3.83;81.98
12215;BME280;6170;42.206;24.142;2024-01-15T01:33:52;98257.22;;;-3.76;82.34
12215;BME280;6170;42.206;24.142;2024-01-15T01:36:19;98405.44;;;-2.59;82.28
12215;BME280;6170;42.206;24.142;2024-01-15T01:38:47;98253.19;;;-3.39;81.32
12215;BME280;6170;42.206;24.142;2024-01-15T01:41:14;98410.34;;;-2.86;82.15
12215;BME280;6170;42.206;24.142;2024-01-15T01:43:43;98338.88;;;-3.30;82.19
12215;BME280;6170;42.206;24.142;2024-01-15T01:46:11;98214.00;;;-4.02;82.45
12215;BME280;6170;42.206;24.142;2024-01-15T01:48:39;98403.13;;;-2.73;82.35
12215;BME280;6170;42.206;24.142;2024-01-15T01:51:07;98246.56;;;-3.64;83.02
12215;BME280;6170;42.206;24.142;2024-01-15T01:53:35;98399.50;;;-2.82;82.04
12215;BME280;6170;42.206;24.142;2024-01-15T01:56:04;98248.72;;;-3.48;82.46
12215;BME280;6170;42.206;24.142;2024-01-15T01:58:32;98258.09;;;-3.66;82.83
12215;BME280;6170;42.206;24.142;2024-01-15T02:01:01;98233.47;;;-3.64;82.18
12215;BME280;6170;42.206;24.142;2024-01-15T02:03:30;98390.16;;;-2.95;82.72
12215;BME280;6170;42.206;24.142;2024-01-15T02:05:58;98388.34;;;-2.74;82.52
12215;BME280;6170;42.206;24.142;2024-01-15T02:08:26;98374.47;;;-2.65;82.21
12215;BME280;6170;42.206;24.142;2024-01-15T02:10:53;98228.06;;;-3.51;81.97
12215;BME280;6170;42.206;24.142;2024-01-15T02:13:20;98380.50;;;-2.53;81.30
12215;BME280;6170;42.206;24.142;2024-01-15T02:15:48;98232.25;;;-3.39;81.31
12215;BME280;6170;42.206;24.142;2024-01-15T02:18:16;98228.63;;;-3.47;81.16
12215;BME280;6170;42.206;24.142;2024-01-15T02:20:44;98384.84;;;-2.84;82.02
12215;BME280;6170;42.206;24.142;2024-01-15T02:23:13;98381.31;;;-2.74;82.04
12215;BME280;6170;42.206;24.142;2024-01-15T02:25:42;98243.34;;;-3.67;81.41
12215;BME280;6170;42.206;24.142;2024-01-15T02:28:11;98213.47;;;-3.85;81.49
12215;BME280;6170;42.206;24.142;2024-01-15T02:30:40;98377.22;;;-3.08;82.69
12215;BME280;6170;42.206;24.142;2024-01-15T02:33:08;98171.38;;;-4.14;82.49
12215;BME280;6170;42.206;24.142;2024-01-15T02:35:35;98379.91;;;-2.78;81.70
12215;BME280;6170;42.206;24.142;2024-01-15T02:38:03;98381.38;;;-2.64;82.13
12215;BME280;6170;42.206;24.142;2024-01-15T02:40:32;98378.19;;;-2.67;81.84
12215;BME280;6170;42.206;24.142;2024-01-15T02:42:59;98217.16;;;-4.51;83.68
12215;BME280;6170;42.206;24.142;2024-01-15T02:45:27;98378.09;;;-3.19;83.12
12215;BME280;6170;42.206;24.142;2024-01-15T02:47:54;98221.44;;;-4.07;81.98
12215;BME280;6170;42.206;24.142;2024-01-15T02:50:21;98364.59;;;-3.03;82.38
12215;BME280;6170;42.206;24.142;2024-01-15T02:52:48;98210.31;;;-4.00;82.04
12215;BME280;6170;42.206;24.142;2024-01-15T02:55:16;98221.41;;;-4.39;82.93
12215;BME280;6170;42.206;24.142;2024-01-15T02:57:44;98378.09;;;-3.39;82.89
12215;BME280;6170;42.206;24.142;2024-01-15T03:00:11;98232.28;;;-4.23;82.61
12215;BME280;6170;42.206;24.142;2024-01-15T03:02:39;98239.84;;;-4.09;83.11
12215;BME280;6170;42.206;24.142;2024-01-15T03:05:09;98223.31;;;-4.10;82.45
12215;BME280;6170;42.206;24.142;2024-01-15T03:07:36;98384.03;;;-2.85;82.78
12215;BME280;6170;42.206;24.142;2024-01-15T03:10:04;98204.28;;;-3.80;82.20
12215;BME280;6170;42.206;24.142;2024-01-15T03:12:31;98219.94;;;-3.69;80.94
12215;BME280;6170;42.206;24.142;2024-01-15T03:15:00;98373.38;;;-2.83;81.20
12215;BME280;6170;42.206;24.142;2024-01-15T03:17:27;98223.44;;;-3.79;80.67
12215;BME280;6170;42.206;24.142;2024-01-15T03:19:54;98368.97;;;-2.83;80.86
12215;BME280;6170;42.206;24.142;2024-01-15T03:22:21;98229.66;;;-4.12;82.54
12215;BME280;6170;42.206;24.142;2024-01-15T03:24:48;98232.56;;;-3.94;81.45
12215;BME280;6170;42.206;24.142;2024-01-15T03:27:15;98378.00;;;-3.17;82.63
12215;BME280;6170;42.206;24.142;2024-01-15T03:29:42;98208.53;;;-4.74;82.71
12215;BME280;6170;42.206;24.142;2024-01-15T03:32:10;98370.50;;;-3.53;82.82
12215;BME280;6170;42.206;24.142;2024-01-15T03:34:37;98209.22;;;-4.18;82.71
12215;BME280;6170;42.206;24.142;2024-01-15T03:37:05;98365.16;;;-2.99;82.21
12215;BME280;6170;42.206;24.142;2024-01-15T03:39:32;98211.00;;;-3.98;81.22
12215;BME280;6170;42.206;24.142;2024-01-15T03:41:59;98209.50;;;-4.00;81.43
12215;BME280;6170;42.206;24.142;2024-01-15T03:44:26;98204.84;;;-3.97;81.87
12215;BME280;6170;42.206;24.142;2024-01-15T03:46:53;98175.47;;;-4.00;81.14
12215;BME280;6170;42.206;24.142;2024-01-15T03:49:21;98176.50;;;-4.13;81.65
12215;BME280;6170;42.206;24.142;2024-01-15T03:51:48;98150.31;;;-4.65;81.56
12215;BME280;6170;42.206;24.142;2024-01-15T03:54:15;98341.47;;;-3.50;82.19
12215;BME280;6170;42.206;24.142;2024-01-15T03:56:42;98202.47;;;-4.97;82.62
12215;BME280;6170;42.206;24.142;2024-01-15T03:59:09;98330.50;;;-3.76;83.51
12215;BME280;6170;42.206;24.142;2024-01-15T04:01:36;98159.84;;;-4.43;82.73
12215;BME280;6170;42.206;24.142;2024-01-15T04:04:03;98322.34;;;-3.62;82.24
12215;BME280;6170;42.206;24.142;2024-01-15T04:06:32;98090.81;;;-5.82;84.19
12215;BME280;6170;42.206;24.142;2024-01-15T04:08:59;98133.38;;;-5.26;84.90
12215;BME280;6170;42.206;24.142;2024-01-15T04:11:26;98190.34;;;-4.76;84.55
12215;BME280;6170;42.206;24.142;2024-01-15T04:13:53;98208.72;;;-4.55;84.57
12215;BME280;6170;42.206;24.142;2024-01-15T04:16:20;98178.06;;;-4.64;83.55
12215;BME280;6170;42.206;24.142;2024-01-15T04:18:47;98336.44;;;-3.74;82.34
12215;BME280;6170;42.206;24.142;2024-01-15T04:21:14;98196.50;;;-4.77;82.79
12215;BME280;6170;42.206;24.142;2024-01-15T04:23:42;98335.03;;;-3.89;83.14
12215;BME280;6170;42.206;24.142;2024-01-15T04:26:09;98191.72;;;-4.49;82.92
12215;BME280;6170;42.206;24.142;2024-01-15T04:28:36;98330.84;;;-3.70;82.74
12215;BME280;6170;42.206;24.142;2024-01-15T04:31:03;98193.84;;;-4.55;81.93
12215;BME280;6170;42.206;24.142;2024-01-15T04:33:30;98191.59;;;-4.48;82.37
12215;BME280;6170;42.206;24.142;2024-01-15T04:36:01;98193.09;;;-4.34;81.29
12215;BME280;6170;42.206;24.142;2024-01-15T04:38:28;98201.16;;;-4.26;82.01
12215;BME280;6170;42.206;24.142;2024-01-15T04:40:57;98221.25;;;-4.38;83.19
12215;BME280;6170;42.206;24.142;2024-01-15T04:43:24;98194.31;;;-4.38;82.29
12215;BME280;6170;42.206;24.142;2024-01-15T04:45:51;98046.88;;;-5.22;81.96
12215;BME280;6170;42.206;24.142;2024-01-15T04:48:18;98173.22;;;-4.26;82.45
12215;BME280;6170;42.206;24.142;2024-01-15T04:50:45;98161.94;;;-4.26;82.55
12215;BME280;6170;42.206;24.142;2024-01-15T04:53:14;98314.16;;;-3.37;82.65
12215;BME280;6170;42.206;24.142;2024-01-15T04:55:41;98255.84;;;-3.91;82.05
12215;BME280;6170;42.206;24.142;2024-01-15T04:58:09;98184.84;;;-4.62;82.67
12215;BME280;6170;42.206;24.142;2024-01-15T05:00:36;98175.81;;;-4.69;82.62
12215;BME280;6170;42.206;24.142;2024-01-15T05:03:03;98185.72;;;-4.83;82.66
12215;BME280;6170;42.206;24.142;2024-01-15T05:05:31;98175.34;;;-4.63;82.32
12215;BME280;6170;42.206;24.142;2024-01-15T05:07:58;98198.03;;;-4.52;82.23
12215;BME280;6170;42.206;24.142;2024-01-15T05:10:25;98168.66;;;-4.44;81.85
12215;BME280;6170;42.206;24.142;2024-01-15T05:12:52;98218.88;;;-4.30;82.61
12215;BME280;6170;42.206;24.142;2024-01-15T05:15:20;98185.56;;;-4.17;82.31
12215;BME280;6170;42.206;24.142;2024-01-15T05:17:47;98316.41;;;-3.32;82.52
12215;BME280;6170;42.206;24.142;2024-01-15T05:20:14;98173.22;;;-4.26;81.74
12215;BME280;6170;42.206;24.142;2024-01-15T05:22:41;98168.50;;;-4.11;81.91
12215;BME280;6170;42.206;24.142;2024-01-15T05:25:08;98156.56;;;-4.25;82.54
12215;BME280;6170;42.206;24.142;2024-01-15T05:27:35;98268.00;;;-3.70;82.56
12215;BME280;6170;42.206;24.142;2024-01-15T05:30:03;98160.53;;;-4.41;81.58
12215;BME280;6170;42.206;24.142;2024-01-15T05:32:32;98252.75;;;-4.28;83.25
12215;BME280;6170;42.206;24.142;2024-01-15T05:34:59;98166.34;;;-4.38;83.01
12215;BME280;6170;42.206;24.142;2024-01-15T05:37:26;98171.19;;;-4.22;82.98
12215;BME280;6170;42.206;24.142;2024-01-15T05:39:53;98287.75;;;-3.45;82.79
12215;BME280;6170;42.206;24.142;2024-01-15T05:42:20;98164.28;;;-4.55;83.02
12215;BME280;6170;42.206;24.142;2024-01-15T05:44:47;98295.16;;;-4.14;84.32
12215;BME280;6170;42.206;24.142;2024-01-15T05:47:14;98201.59;;;-4.53;83.65
12215;BME280;6170;42.206;24.142;2024-01-15T05:49:42;98168.16;;;-5.04;83.98
12215;BME280;6170;42.206;24.142;2024-01-15T05:52:09;98189.75;;;-4.79;83.42
12215;BME280;6170;42.206;24.142;2024-01-15T05:54:36;98181.66;;;-4.76;82.44
12215;BME280;6170;42.206;24.142;2024-01-15T05:57:04;98184.13;;;-4.53;82.84
12215;BME280;6170;42.206;24.142;2024-01-15T05:59:31;98191.75;;;-4.72;82.40
12215;BME280;6170;42.206;24.142;2024-01-15T06:01:59;98213.81;;;-4.54;82.38
12215;BME280;6170;42.206;24.142;2024-01-15T06:04:26;98197.88;;;-4.50;82.79
12215;BME280;6170;42.206;24.142;2024-01-15T06:06:55;98193.78;;;-4.32;83.56
12215;BME280;6170;42.206;24.142;2024-01-15T06:09:22;98155.78;;;-4.36;83.42
12215;BME280;6170;42.206;24.142;2024-01-15T06:11:49;98160.59;;;-4.21;82.45
12215;BME280;6170;42.206;24.142;2024-01-15T06:14:16;98200.81;;;-4.01;81.78
12215;BME280;6170;42.206;24.142;2024-01-15T06:16:43;98169.03;;;-4.17;80.92
12215;BME280;6170;42.206;24.142;2024-01-15T06:19:10;98311.84;;;-3.09;81.84
12215;BME280;6170;42.206;24.142;2024-01-15T06:21:36;98319.38;;;-2.95;81.41
12215;BME280;6170;42.206;24.142;2024-01-15T06:24:05;98175.41;;;-3.89;81.03
12215;BME280;6170;42.206;24.142;2024-01-15T06:26:32;98316.06;;;-2.97;81.24
12215;BME280;6170;42.206;24.142;2024-01-15T06:28:59;98184.19;;;-3.58;81.16
12215;BME280;6170;42.206;24.142;2024-01-15T06:31:26;98303.44;;;-2.62;80.51
12215;BME280;6170;42.206;24.142;2024-01-15T06:33:53;98178.44;;;-3.22;80.27
12215;BME280;6170;42.206;24.142;2024-01-15T06:36:20;98146.00;;;-3.31;79.64
12215;BME280;6170;42.206;24.142;2024-01-15T06:38:47;98280.53;;;-2.50;80.29
12215;BME280;6170;42.206;24.142;2024-01-15T06:41:15;98154.56;;;-3.29;80.76
12215;BME280;6170;42.206;24.142;2024-01-15T06:43:42;98169.34;;;-3.18;80.73
12215;BME280;6170;42.206;24.142;2024-01-15T06:46:09;98152.06;;;-2.90;79.62
12215;BME280;6170;42.206;24.142;2024-01-15T06:48:36;98156.44;;;-2.70;78.85
12215;BME280;6170;42.206;24.142;2024-01-15T06:51:04;98156.88;;;-2.95;79.55
12215;BME280;6170;42.206;24.142;2024-01-15T06:53:31;98169.34;;;-3.48;81.67
12215;BME280;6170;42.206;24.142;2024-01-15T06:55:58;98151.09;;;-2.99;80.74
12215;BME280;6170;42.206;24.142;2024-01-15T06:58:26;98160.03;;;-3.11;81.86
12215;BME280;6170;42.206;24.142;2024-01-15T07:00:53;98170.34;;;-2.79;80.40
12215;BME280;6170;42.206;24.142;2024-01-15T07:03:20;98282.63;;;-1.75;79.64
12215;BME280;6170;42.206;24.142;2024-01-15T07:05:47;98117.72;;;-2.87;79.79
12215;BME280;6170;42.206;24.142;2024-01-15T07:08:14;98308.47;;;-1.81;80.46
12215;BME280;6170;42.206;24.142;2024-01-15T07:10:44;98311.78;;;-1.88;80.31
12215;BME280;6170;42.206;24.142;2024-01-15T07:13:11;98211.00;;;-2.45;80.02
12215;BME280;6170;42.206;24.142;2024-01-15T07:15:39;98310.53;;;-1.94;80.09
12215;BME280;6170;42.206;24.142;2024-01-15T07:18:06;98200.19;;;-2.51;80.09
12215;BME280;6170;42.206;24.142;2024-01-15T07:20:33;98182.03;;;-2.24;80.10
12215;BME280;6170;42.206;24.142;2024-01-15T07:23:00;98319.41;;;-1.27;79.64
12215;BME280;6170;42.206;24.142;2024-01-15T07:25:28;98200.00;;;-1.91;79.06
12215;BME280;6170;42.206;24.142;2024-01-15T07:27:55;98231.09;;;-1.96;79.61
12215;BME280;6170;42.206;24.142;2024-01-15T07:30:22;98217.69;;;-1.08;79.36
12215;BME280;6170;42.206;24.142;2024-01-15T07:32:50;98199.34;;;-0.35;76.32
12215;BME280;6170;42.206;24.142;2024-01-15T07:35:18;98197.47;;;1.23;72.19
12215;BME280;6170;42.206;24.142;2024-01-15T07:37:45;98200.56;;;2.18;68.86
12215;BME280;6170;42.206;24.142;2024-01-15T07:40:12;98310.28;;;3.44;66.66
12215;BME280;6170;42.206;24.142;2024-01-15T07:42:40;98209.81;;;2.22;68.74
12215;BME280;6170;42.206;24.142;2024-01-15T07:45:08;98193.94;;;1.98;69.88
12215;BME280;6170;42.206;24.142;2024-01-15T07:47:35;98152.56;;;1.57;70.44
12215;BME280;6170;42.206;24.142;2024-01-15T07:50:04;98202.94;;;1.71;70.98
12215;BME280;6170;42.206;24.142;2024-01-15T07:52:31;98255.69;;;1.21;72.32
12215;BME280;6170;42.206;24.142;2024-01-15T07:54:58;98185.81;;;1.00;72.25
12215;BME280;6170;42.206;24.142;2024-01-15T07:57:26;98285.88;;;1.53;72.45
12215;BME280;6170;42.206;24.142;2024-01-15T07:59:53;98196.97;;;0.24;74.38
12215;BME280;6170;42.206;24.142;2024-01-15T08:02:20;98331.53;;;1.19;75.60
12215;BME280;6170;42.206;24.142;2024-01-15T08:04:48;98163.72;;;0.49;73.83
12215;BME280;6170;42.206;24.142;2024-01-15T08:07:16;98210.25;;;0.58;73.72
12215;BME280;6170;42.206;24.142;2024-01-15T08:09:43;98331.91;;;1.84;73.05
12215;BME280;6170;42.206;24.142;2024-01-15T08:12:12;98195.69;;;0.98;72.58
12215;BME280;6170;42.206;24.142;2024-01-15T08:14:39;98329.72;;;2.13;70.56
12215;BME280;6170;42.206;24.142;2024-01-15T08:17:06;98200.72;;;1.09;70.63
12215;BME280;6170;42.206;24.142;2024-01-15T08:19:33;98196.22;;;1.35;71.21
12215;BME280;6170;42.206;24.142;2024-01-15T08:22:00;98183.38;;;0.80;72.44
12215;BME280;6170;42.206;24.142;2024-01-15T08:24:28;98211.63;;;1.14;72.60
12215;BME280;6170;42.206;24.142;2024-01-15T08:26:57;98169.41;;;1.14;71.92
12215;BME280;6170;42.206;24.142;2024-01-15T08:29:24;98189.13;;;1.02;73.57
12215;BME280;6170;42.206;24.142;2024-01-15T08:31:52;98180.31;;;0.93;74.07
12215;BME280;6170;42.206;24.142;2024-01-15T08:34:19;98132.69;;;0.61;74.42
12215;BME280;6170;42.206;24.142;2024-01-15T08:36:46;98324.53;;;1.96;74.60
12215;BME280;6170;42.206;24.142;2024-01-15T08:39:13;98316.31;;;1.73;73.12
12215;BME280;6170;42.206;24.142;2024-01-15T08:41:41;98311.41;;;1.78;74.28
12215;BME280;6170;42.206;24.142;2024-01-15T08:44:08;98170.75;;;0.84;75.41
12215;BME280;6170;42.206;24.142;2024-01-15T08:46:35;98185.84;;;1.08;75.41
12215;BME280;6170;42.206;24.142;2024-01-15T08:49:03;98198.53;;;1.38;74.32
12215;BME280;6170;42.206;24.142;2024-01-15T08:51:30;98335.94;;;2.04;74.92
12215;BME280;6170;42.206;24.142;2024-01-15T08:53:57;98191.16;;;1.16;74.89
12215;BME280;6170;42.206;24.142;2024-01-15T08:56:24;98189.69;;;1.55;74.20
12215;BME280;6170;42.206;24.142;2024-01-15T08:58:54;98156.41;;;1.28;74.45
12215;BME280;6170;42.206;24.142;2024-01-15T09:01:21;98328.34;;;2.51;74.25
12215;BME280;6170;42.206;24.142;2024-01-15T09:03:48;98179.16;;;1.63;74.11
12215;BME280;6170;42.206;24.142;2024-01-15T09:06:15;98196.50;;;1.66;73.82
12215;BME280;6170;42.206;24.142;2024-01-15T09:08:42;98317.22;;;2.40;73.98
12215;BME280;6170;42.206;24.142;2024-01-15T09:11:09;98169.59;;;1.70;73.31
12215;BME280;6170;42.206;24.142;2024-01-15T09:13:37;98297.75;;;2.57;72.01
12215;BME280;6170;42.206;24.142;2024-01-15T09:16:07;98167.31;;;1.75;71.82
12215;BME280;6170;42.206;24.142;2024-01-15T09:18:34;98150.84;;;2.14;70.45
12215;BME280;6170;42.206;24.142;2024-01-15T09:21:03;98097.16;;;2.05;68.54
12215;BME280;6170;42.206;24.142;2024-01-15T09:23:30;98126.03;;;2.63;67.51
12215;BME280;6170;42.206;24.142;2024-01-15T09:25:57;98099.75;;;2.54;66.48
12215;BME280;6170;42.206;24.142;2024-01-15T09:28:24;98114.63;;;3.10;66.40
12215;BME280;6170;42.206;24.142;2024-01-15T09:30:51;98094.72;;;2.91;69.48
12215;BME280;6170;42.206;24.142;2024-01-15T09:33:20;98180.88;;;3.33;70.84
12215;BME280;6170;42.206;24.142;2024-01-15T09:35:47;98194.22;;;3.55;70.61
12215;BME280;6170;42.206;24.142;2024-01-15T09:38:14;98211.59;;;3.50;72.18
12215;BME280;6170;42.206;24.142;2024-01-15T09:40:43;98074.53;;;2.90;69.13
12215;BME280;6170;42.206;24.142;2024-01-15T09:43:10;98205.94;;;4.23;68.59
12215;BME280;6170;42.206;24.142;2024-01-15T09:45:38;98095.47;;;3.70;68.64
12215;BME280;6170;42.206;24.142;2024-01-15T09:48:07;98067.09;;;3.25;67.62
12215;BME280;6170;42.206;24.142;2024-01-15T09:50:35;98062.53;;;3.10;67.69
12215;BME280;6170;42.206;24.142;2024-01-15T09:53:03;98068.03;;;2.54;70.24
12215;BME280;6170;42.206;24.142;2024-01-15T09:55:31;98063.34;;;2.72;69.60
12215;BME280;6170;42.206;24.142;2024-01-15T09:58:00;98196.94;;;3.39;69.00
12215;BME280;6170;42.206;24.142;2024-01-15T10:00:28;98068.00;;;2.62;68.95
12215;BME280;6170;42.206;24.142;2024-01-15T10:02:56;98038.00;;;2.39;68.53
12215;BME280;6170;42.206;24.142;2024-01-15T10:05:23;98033.09;;;2.03;69.85
12215;BME280;6170;42.206;24.142;2024-01-15T10:07:53;98026.91;;;2.51;69.55
12215;BME280;6170;42.206;24.142;2024-01-15T10:10:21;98149.63;;;3.28;68.80
12215;BME280;6170;42.206;24.142;2024-01-15T10:12:49;98018.06;;;2.67;68.21
12215;BME280;6170;42.206;24.142;2024-01-15T10:15:16;98015.19;;;2.85;67.13
12215;BME280;6170;42.206;24.142;2024-01-15T10:17:43;98008.19;;;3.00;68.42
12215;BME280;6170;42.206;24.142;2024-01-15T10:20:11;98128.63;;;3.88;69.08
12215;BME280;6170;42.206;24.142;2024-01-15T10:22:41;98145.91;;;4.07;68.75
12215;BME280;6170;42.206;24.142;2024-01-15T10:25:14;97959.56;;;3.46;67.60
12215;BME280;6170;42.206;24.142;2024-01-15T10:27:42;97990.41;;;3.77;67.61
12215;BME280;6170;42.206;24.142;2024-01-15T10:30:09;97982.47;;;3.77;64.30
12215;BME280;6170;42.206;24.142;2024-01-15T10:32:37;98114.88;;;4.82;66.25
12215;BME280;6170;42.206;24.142;2024-01-15T10:35:07;98000.22;;;4.43;66.53
12215;BME280;6170;42.206;24.142;2024-01-15T10:37:34;97973.34;;;4.46;65.03
12215;BME280;6170;42.206;24.142;2024-01-15T10:40:02;97978.00;;;5.09;60.80
12215;BME280;6170;42.206;24.142;2024-01-15T10:42:32;97996.66;;;5.52;61.19
12215;BME280;6170;42.206;24.142;2024-01-15T10:44:59;98092.19;;;5.45;62.35
12215;BME280;6170;42.206;24.142;2024-01-15T10:47:26;97994.09;;;4.86;62.46
12215;BME280;6170;42.206;24.142;2024-01-15T10:49:54;98096.91;;;5.79;62.29
12215;BME280;6170;42.206;24.142;2024-01-15T10:52:21;97965.19;;;4.62;63.60
12215;BME280;6170;42.206;24.142;2024-01-15T10:54:49;97959.81;;;4.56;63.21
12215;BME280;6170;42.206;24.142;2024-01-15T10:57:17;97934.84;;;4.50;63.61
12215;BME280;6170;42.206;24.142;2024-01-15T10:59:46;97944.22;;;3.94;64.22
12215;BME280;6170;42.206;24.142;2024-01-15T11:02:14;97956.81;;;3.77;64.61
12215;BME280;6170;42.206;24.142;2024-01-15T11:04:41;98073.63;;;4.94;64.88
12215;BME280;6170;42.206;24.142;2024-01-15T11:07:10;97940.13;;;4.50;63.34
12215;BME280;6170;42.206;24.142;2024-01-15T11:09:37;98056.53;;;5.90;63.33
12215;BME280;6170;42.206;24.142;2024-01-15T11:12:09;98049.19;;;5.92;60.92
12215;BME280;6170;42.206;24.142;2024-01-15T11:14:39;97926.13;;;5.77;59.43
12215;BME280;6170;42.206;24.142;2024-01-15T11:17:10;97876.16;;;5.87;59.46
12215;BME280;6170;42.206;24.142;2024-01-15T11:19:42;97919.47;;;6.15;58.48
12215;BME280;6170;42.206;24.142;2024-01-15T11:22:11;97901.81;;;6.01;57.55
12215;BME280;6170;42.206;24.142;2024-01-15T11:25:01;97924.06;;;6.69;55.31
12215;BME280;6170;42.206;24.142;2024-01-15T11:27:40;97909.78;;;6.76;57.73
12215;BME280;6170;42.206;24.142;2024-01-15T11:30:09;97914.69;;;6.80;56.43
12215;BME280;6170;42.206;24.142;2024-01-15T11:32:38;97912.41;;;6.70;56.85
12215;BME280;6170;42.206;24.142;2024-01-15T11:35:07;97971.97;;;7.16;56.30
12215;BME280;6170;42.206;24.142;2024-01-15T11:37:58;98010.47;;;8.01;55.12
12215;BME280;6170;42.206;24.142;2024-01-15T11:40:37;98025.66;;;8.07;54.35
12215;BME280;6170;42.206;24.142;2024-01-15T11:43:05;97912.63;;;6.82;55.60
12215;BME280;6170;42.206;24.142;2024-01-15T11:45:34;97914.97;;;7.04;55.44
12215;BME280;6170;42.206;24.142;2024-01-15T11:48:14;98015.81;;;7.14;56.78
12215;BME280;6170;42.206;24.142;2024-01-15T11:50:43;97901.75;;;6.70;55.90
12215;BME280;6170;42.206;24.142;2024-01-15T11:53:21;97871.13;;;6.46;54.73
12215;BME280;6170;42.206;24.142;2024-01-15T11:55:56;97873.50;;;5.87;55.89
12215;BME280;6170;42.206;24.142;2024-01-15T11:58:24;97991.63;;;6.33;57.03
12215;BME280;6170;42.206;24.142;2024-01-15T12:00:52;97907.75;;;5.54;57.34
12215;BME280;6170;42.206;24.142;2024-01-15T12:03:22;97880.56;;;5.80;57.71
12215;BME280;6170;42.206;24.142;2024-01-15T12:05:49;97824.97;;;5.02;58.51
12215;BME280;6170;42.206;24.142;2024-01-15T12:08:21;97875.88;;;5.54;57.29
12215;BME280;6170;42.206;24.142;2024-01-15T12:10:48;97998.66;;;6.41;57.35
12215;BME280;6170;42.206;24.142;2024-01-15T12:13:15;97881.63;;;5.85;58.25
12215;BME280;6170;42.206;24.142;2024-01-15T12:15:44;97991.84;;;6.32;58.31
12215;BME280;6170;42.206;24.142;2024-01-15T12:18:12;97986.94;;;6.08;58.40
12215;BME280;6170;42.206;24.142;2024-01-15T12:20:41;97900.03;;;5.59;58.54
12215;BME280;6170;42.206;24.142;2024-01-15T12:23:09;97860.56;;;5.07;60.15
12215;BME280;6170;42.206;24.142;2024-01-15T12:25:36;97933.97;;;5.00;59.25
12215;BME280;6170;42.206;24.142;2024-01-15T12:28:04;97880.84;;;4.93;59.47
12215;BME280;6170;42.206;24.142;2024-01-15T12:30:34;97869.91;;;5.24;58.52
12215;BME280;6170;42.206;24.142;2024-01-15T12:33:04;97875.78;;;4.98;59.38
12215;BME280;6170;42.206;24.142;2024-01-15T12:35:31;97990.19;;;5.82;58.99
12215;BME280;6170;42.206;24.142;2024-01-15T12:38:01;97868.69;;;5.48;58.37
12215;BME280;6170;42.206;24.142;2024-01-15T12:40:30;97986.16;;;6.42;58.17
12215;BME280;6170;42.206;24.142;2024-01-15T12:42:57;97871.09;;;5.99;57.23
12215;BME280;6170;42.206;24.142;2024-01-15T12:45:25;97971.59;;;6.72;56.60
12215;BME280;6170;42.206;24.142;2024-01-15T12:47:52;97852.78;;;6.17;56.74
12215;BME280;6170;42.206;24.142;2024-01-15T12:50:24;97951.59;;;6.96;55.91
12215;BME280;6170;42.206;24.142;2024-01-15T12:52:51;97846.28;;;6.26;56.29
12215;BME280;6170;42.206;24.142;2024-01-15T12:55:19;97954.91;;;7.04;55.57
12215;BME280;6170;42.206;24.142;2024-01-15T12:57:46;97836.59;;;6.12;55.73
12215;BME280;6170;42.206;24.142;2024-01-15T13:00:15;97832.81;;;5.93;56.62
12215;BME280;6170;42.206;24.142;2024-01-15T13:02:42;97814.03;;;5.95;56.09
12215;BME280;6170;42.206;24.142;2024-01-15T13:05:10;97782.13;;;5.67;56.03
12215;BME280;6170;42.206;24.142;2024-01-15T13:07:37;97803.28;;;5.47;58.05